Terminal Aerodrome Forecast
Issued by NWS Missoula, MT

Home | Current Version | Previous Version | Text Only | Print | Product List | Glossary On
Versions: 1 2 3 4 5 6 7 8 9 10 11 12 13 14 15 16 17 18 19 20 21 22 23
000
FTUS45 KMSO 241126
TAFGPI
TAF
KGPI 241126Z 2412/2512 02007KT P6SM BKN080
     FM241400 VRB03KT 5SM BR VCFG BKN050
     FM241800 02005KT P6SM VCSH OVC035=

USA.gov is the U.S. government's official web portal to all federal, state and local government web resources and services.